Porterville, Mississippi
Current Conditions -  °F | °C
As of 5:56 PM on Thursday 18 Dec 2014 (Local Time) from KNMM Reporting Station
Broken Clouds Broken Clouds  
Wind Chill: 48°   Ceiling: 3000
Heat Index: 48°   Visibility: 10mi
Dew Point: 38°   Wind: 0mph
Humidity: 68%   Direction: NA
Pressure: 30.17"   Gusts: NA
Location:  32.69°N, 88.47°W
Report Text: KNMM 182356Z 00000KT 10SM BKN030 BKN120 09/03 A3017 RMK AO2 SLP228 60000 T00890033 10117 20089 50002
Loading
Personal Weather Stations






























Interactive Weather Map New forecast layout! Learn more

10-Day Weather Forecast

Advertisements
Track Severe Weather on mobile